Time;durP1;ratioP1;P1;durP2;ratioP2;P2;SDS_P1;SDS_P2;PMS_P1;PMS_P2;Temp;Humidity;BMP_temperature;BMP_pressure;BME280_temperature;BME280_humidity;BME280_pressure;Samples;Min_cycle;Max_cycle;Signal;HPM_P1;HPM_P2
2023/05/23 00:01:36;;;;;;;32.33;16.13;;;17.50;1.00;;;;;;5091144;28;20381;-64
2023/05/23 00:04:05;;;;;;;32.58;15.90;;;18.30;1.00;;;;;;5092225;28;20384;-64
2023/05/23 00:06:31;;;;;;;36.10;17.30;;;17.60;1.00;;;;;;5090364;28;21006;-64
2023/05/23 00:08:57;;;;;;;42.58;17.13;;;17.70;1.00;;;;;;5091376;28;20469;-64
2023/05/23 00:11:25;;;;;;;34.28;17.35;;;17.70;1.00;;;;;;5091405;28;20434;-59
2023/05/23 00:13:52;;;;;;;35.47;16.33;;;17.70;1.00;;;;;;5091375;28;20382;-64
2023/05/23 00:16:18;;;;;;;37.75;17.10;;;17.70;1.00;;;;;;5090915;28;20856;-64
2023/05/23 00:18:44;;;;;;;38.33;17.38;;;17.80;1.00;;;;;;5091094;28;20712;-64
2023/05/23 00:21:12;;;;;;;40.13;17.83;;;17.70;1.00;;;;;;5091619;28;20385;-59
2023/05/23 00:23:41;;;;;;;34.60;16.60;;;17.80;1.00;;;;;;5090856;28;20487;-64
2023/05/23 00:26:07;;;;;;;36.95;17.73;;;17.70;1.00;;;;;;5091328;28;20388;-64
2023/05/23 00:28:32;;;;;;;37.75;17.90;;;17.70;1.00;;;;;;5090366;28;20374;-65
2023/05/23 00:30:58;;;;;;;43.15;18.85;;;17.80;1.00;;;;;;5091049;28;20502;-64
2023/05/23 00:33:23;;;;;;;45.53;20.10;;;17.70;1.00;;;;;;5090437;28;20378;-64
2023/05/23 00:35:49;;;;;;;40.83;19.90;;;17.80;1.00;;;;;;5091158;28;20416;-63
2023/05/23 00:38:15;;;;;;;38.88;18.17;;;17.80;1.00;;;;;;5071382;28;20406;-62
2023/05/23 00:40:41;;;;;;;46.87;20.83;;;17.80;1.00;;;;;;5090682;28;20390;-64
2023/05/23 00:43:10;;;;;;;42.00;19.38;;;17.80;1.00;;;;;;5091771;28;20420;-64
2023/05/23 00:45:37;;;;;;;41.67;21.15;;;17.90;1.00;;;;;;5083097;28;20370;-64
2023/05/23 00:48:03;;;;;;;46.15;20.70;;;18.00;1.00;;;;;;5091333;28;20394;-64
2023/05/23 00:50:29;;;;;;;49.33;21.30;;;17.90;1.00;;;;;;5090000;28;20414;-64
2023/05/23 00:52:56;;;;;;;44.88;19.85;;;17.90;1.00;;;;;;5087979;28;20878;-64
2023/05/23 00:55:27;;;;;;;44.58;21.40;;;17.80;1.00;;;;;;5089986;28;20397;-64
2023/05/23 00:57:55;;;;;;;47.63;22.43;;;17.80;1.00;;;;;;5090361;28;20748;-64
2023/05/23 01:00:23;;;;;;;48.22;21.48;;;17.70;1.00;;;;;;5089874;28;20382;-64
2023/05/23 01:02:53;;;;;;;51.60;22.63;;;17.60;1.00;;;;;;5090490;28;20382;-64
2023/05/23 01:05:21;;;;;;;52.00;21.20;;;17.60;1.00;;;;;;5087500;28;20453;-61
2023/05/23 01:07:48;;;;;;;49.35;22.75;;;17.50;1.00;;;;;;5091104;28;20379;-63
2023/05/23 01:10:17;;;;;;;48.70;21.77;;;17.50;1.00;;;;;;5089269;28;20488;-59
2023/05/23 01:13:05;;;;;;;46.65;23.48;;;17.40;1.00;;;;;;5090285;28;20466;-64
2023/05/23 01:15:37;;;;;;;53.00;23.60;;;17.50;1.00;;;;;;5088911;28;20394;-63
2023/05/23 01:18:37;;;;;;;58.40;25.10;;;17.60;1.00;;;;;;5090353;28;20858;-64
2023/05/23 01:21:23;;;;;;;60.50;24.42;;;17.50;1.00;;;;;;5003537;28;20469;-64
2023/05/23 01:24:07;;;;;;;56.30;23.35;;;17.60;1.00;;;;;;5089195;28;20390;-64
2023/05/23 01:26:51;;;;;;;63.72;27.00;;;17.70;1.00;;;;;;5088954;28;20522;-64
2023/05/23 01:29:31;;;;;;;58.38;24.55;;;17.70;1.00;;;;;;5086642;28;20402;-64
2023/05/23 01:31:58;;;;;;;59.15;24.95;;;17.80;1.00;;;;;;5087596;28;20405;-64
2023/05/23 01:34:24;;;;;;;50.45;24.92;;;17.80;1.00;;;;;;5088961;28;20382;-63
2023/05/23 01:36:54;;;;;;;58.73;24.97;;;17.70;1.00;;;;;;5089922;28;20436;-63
2023/05/23 01:39:21;;;;;;;61.38;24.50;;;17.80;1.00;;;;;;5089066;28;20857;-64
2023/05/23 01:41:47;;;;;;;62.15;25.98;;;17.80;1.00;;;;;;5089989;28;20473;-64
2023/05/23 01:44:13;;;;;;;65.30;25.10;;;17.80;1.00;;;;;;5089149;28;20477;-59
2023/05/23 01:46:40;;;;;;;54.60;25.77;;;17.80;1.00;;;;;;5089456;28;20916;-64
2023/05/23 01:49:10;;;;;;;60.95;26.50;;;17.80;1.00;;;;;;5088985;28;20473;-64
2023/05/23 01:51:36;;;;;;;66.22;26.75;;;17.90;1.00;;;;;;5086185;28;20506;-64
2023/05/23 01:54:02;;;;;;;60.38;27.27;;;17.90;1.00;;;;;;5089582;28;20478;-63
2023/05/23 01:56:29;;;;;;;60.77;27.00;;;17.80;1.00;;;;;;5089191;28;20386;-63
2023/05/23 01:58:54;;;;;;;68.40;28.13;;;17.80;1.00;;;;;;5089463;28;20463;-64
2023/05/23 02:01:21;;;;;;;67.00;28.60;;;17.50;1.00;;;;;;5088950;28;20471;-63
2023/05/23 02:03:46;;;;;;;67.10;29.27;;;17.60;1.00;;;;;;5089656;28;20435;-63
2023/05/23 02:06:12;;;;;;;63.73;30.10;;;17.70;1.00;;;;;;5089275;28;20370;-60
2023/05/23 02:08:38;;;;;;;60.83;27.30;;;17.80;1.00;;;;;;5088551;28;20385;-64
2023/05/23 02:11:03;;;;;;;57.90;27.52;;;17.80;1.00;;;;;;5089059;28;20850;-64
2023/05/23 02:13:29;;;;;;;61.23;28.27;;;17.90;1.00;;;;;;5088662;28;20944;-63
2023/05/23 02:15:54;;;;;;;60.10;27.13;;;17.80;1.00;;;;;;5089296;28;20944;-64
2023/05/23 02:18:20;;;;;;;56.90;27.30;;;17.80;1.00;;;;;;5088415;28;20382;-64
2023/05/23 02:20:46;;;;;;;58.78;27.50;;;17.70;1.00;;;;;;5088884;28;20481;-64
2023/05/23 02:23:11;;;;;;;53.70;26.17;;;17.80;1.00;;;;;;5089094;28;20392;-61
2023/05/23 02:25:37;;;;;;;70.10;28.23;;;17.70;1.00;;;;;;5088693;28;20382;-63
2023/05/23 02:28:03;;;;;;;63.75;27.13;;;17.70;1.00;;;;;;5089152;28;20423;-64
2023/05/23 02:30:28;;;;;;;71.73;29.53;;;17.80;1.00;;;;;;5088263;28;20385;-64
2023/05/23 02:32:54;;;;;;;64.20;28.15;;;17.80;1.00;;;;;;5088997;28;20973;-63
2023/05/23 02:35:21;;;;;;;58.45;27.55;;;17.80;1.00;;;;;;5088626;28;20396;-64
2023/05/23 02:37:46;;;;;;;63.67;28.25;;;17.80;1.00;;;;;;5088725;28;20374;-64
2023/05/23 02:40:12;;;;;;;63.27;28.07;;;17.80;1.00;;;;;;5088801;28;20865;-60
2023/05/23 02:42:38;;;;;;;67.45;28.27;;;17.90;1.00;;;;;;5088736;28;20386;-64
2023/05/23 02:45:04;;;;;;;58.27;27.50;;;17.90;1.00;;;;;;5089089;28;20378;-64
2023/05/23 02:47:29;;;;;;;60.53;26.55;;;17.80;1.00;;;;;;5088367;28;20382;-63
2023/05/23 02:49:55;;;;;;;55.57;27.20;;;17.90;1.00;;;;;;5086014;28;20394;-64
2023/05/23 02:52:21;;;;;;;55.83;27.63;;;18.00;1.00;;;;;;5087804;28;20810;-64
2023/05/23 02:54:46;;;;;;;52.95;26.52;;;18.00;1.00;;;;;;5088987;28;20424;-64
2023/05/23 02:57:12;;;;;;;56.00;25.88;;;18.00;1.00;;;;;;5088773;28;20379;-64
2023/05/23 02:59:37;;;;;;;63.60;27.97;;;18.10;1.00;;;;;;5088276;28;20729;-63
2023/05/23 03:02:03;;;;;;;69.53;28.93;;;18.00;1.00;;;;;;5092487;28;20377;-64
2023/05/23 03:04:28;;;;;;;59.35;27.23;;;18.00;1.00;;;;;;5091899;28;20388;-64
2023/05/23 03:06:54;;;;;;;52.80;26.10;;;18.10;1.00;;;;;;5092744;28;20390;-64
2023/05/23 03:09:20;;;;;;;63.60;28.10;;;18.00;1.00;;;;;;5091266;28;20455;-64
2023/05/23 03:11:46;;;;;;;58.85;26.58;;;18.00;1.00;;;;;;5092588;28;20779;-64
2023/05/23 03:14:11;;;;;;;56.67;25.95;;;18.00;1.00;;;;;;5092721;28;20897;-64
2023/05/23 03:16:37;;;;;;;54.47;25.00;;;17.90;1.00;;;;;;5091835;28;20382;-64
2023/05/23 03:19:03;;;;;;;62.90;27.23;;;17.80;1.00;;;;;;5093265;28;20723;-64
2023/05/23 03:21:30;;;;;;;59.53;27.27;;;17.90;1.00;;;;;;5091617;28;20417;-64
2023/05/23 03:23:56;;;;;;;57.80;25.60;;;17.90;1.00;;;;;;5089691;28;20390;-64
2023/05/23 03:26:21;;;;;;;60.10;26.37;;;17.90;1.00;;;;;;5091801;28;20859;-64
2023/05/23 03:28:48;;;;;;;54.83;25.33;;;17.90;1.00;;;;;;5092073;28;20386;-64
2023/05/23 03:31:14;;;;;;;61.13;26.70;;;17.90;1.00;;;;;;5092052;28;20390;-59
2023/05/23 03:33:40;;;;;;;65.57;27.30;;;17.90;1.00;;;;;;5092143;28;20419;-65
2023/05/23 03:36:05;;;;;;;52.92;26.25;;;17.80;1.00;;;;;;5092986;28;20482;-64
2023/05/23 03:38:31;;;;;;;52.40;25.55;;;17.80;1.00;;;;;;5091781;28;20427;-64
2023/05/23 03:40:56;;;;;;;53.47;25.30;;;17.80;1.00;;;;;;5090448;28;20405;-64
2023/05/23 03:43:22;;;;;;;55.90;28.00;;;17.70;1.00;;;;;;5084873;28;20724;-64
2023/05/23 03:45:48;;;;;;;56.22;24.77;;;17.80;1.00;;;;;;5092539;28;20392;-64
2023/05/23 03:48:13;;;;;;;55.70;26.40;;;17.80;1.00;;;;;;5092218;28;20402;-59
2023/05/23 03:50:39;;;;;;;55.13;26.33;;;17.80;1.00;;;;;;5091719;28;20390;-64
2023/05/23 03:53:06;;;;;;;57.30;26.48;;;17.70;1.00;;;;;;5091974;28;20439;-63
2023/05/23 03:55:31;;;;;;;57.10;26.05;;;17.60;1.00;;;;;;5091283;28;20382;-64
2023/05/23 03:57:57;;;;;;;58.35;27.38;;;17.50;1.00;;;;;;5092002;28;20447;-65
2023/05/23 04:00:23;;;;;;;56.65;27.13;;;17.50;1.00;;;;;;5091296;28;20696;-64
2023/05/23 04:02:50;;;;;;;48.53;24.30;;;17.50;1.00;;;;;;5091724;28;20374;-64
2023/05/23 04:05:16;;;;;;;50.58;25.00;;;17.60;1.00;;;;;;5091609;28;20386;-59
2023/05/23 04:07:42;;;;;;;57.05;25.58;;;17.50;1.00;;;;;;5091746;28;20715;-64
2023/05/23 04:10:08;;;;;;;56.38;25.58;;;17.60;1.00;;;;;;5091519;28;20773;-64
2023/05/23 04:12:34;;;;;;;57.47;26.83;;;17.60;1.00;;;;;;5090352;28;20516;-64
2023/05/23 04:15:00;;;;;;;55.67;25.60;;;17.60;1.00;;;;;;5091911;28;20465;-64
2023/05/23 04:17:28;;;;;;;53.75;26.15;;;17.60;1.00;;;;;;5090768;28;20872;-64
2023/05/23 04:19:53;;;;;;;58.97;26.60;;;17.70;1.00;;;;;;5091850;28;20484;-62
2023/05/23 04:22:19;;;;;;;47.40;24.25;;;17.80;1.00;;;;;;5091481;28;20390;-64
2023/05/23 04:24:45;;;;;;;56.10;25.50;;;17.90;1.00;;;;;;5091228;28;20382;-64
2023/05/23 04:27:10;;;;;;;47.73;23.10;;;18.10;1.00;;;;;;5092154;28;20457;-64
2023/05/23 04:29:37;;;;;;;51.13;24.23;;;18.10;1.00;;;;;;5091462;28;20378;-64
2023/05/23 04:32:02;;;;;;;49.28;24.00;;;18.00;1.00;;;;;;5091730;28;20883;-64
2023/05/23 04:34:29;;;;;;;49.88;23.10;;;18.00;1.00;;;;;;5091459;28;20442;-64
2023/05/23 04:36:55;;;;;;;49.87;23.17;;;18.00;1.00;;;;;;5091799;28;20488;-63
2023/05/23 04:39:20;;;;;;;47.15;24.63;;;18.10;1.00;;;;;;5091165;28;20543;-63
2023/05/23 04:41:46;;;;;;;47.08;24.33;;;18.10;1.00;;;;;;5089448;28;20397;-63
2023/05/23 04:44:13;;;;;;;49.67;23.90;;;17.90;1.00;;;;;;5086181;28;20391;-64
2023/05/23 04:46:44;;;;;;;49.55;23.17;;;17.90;1.00;;;;;;5088428;28;20731;-63
2023/05/23 04:49:09;;;;;;;49.63;26.13;;;18.00;1.00;;;;;;5091304;28;20378;-64
2023/05/23 04:51:35;;;;;;;49.97;25.70;;;17.90;1.00;;;;;;5090202;28;20467;-63
2023/05/23 04:54:01;;;;;;;48.27;23.60;;;18.00;1.00;;;;;;5090988;28;20774;-63
2023/05/23 04:56:27;;;;;;;47.75;23.65;;;18.00;1.00;;;;;;5090645;28;20382;-64
2023/05/23 04:58:53;;;;;;;50.17;25.13;;;18.10;1.00;;;;;;5091184;28;20872;-63
2023/05/23 05:01:19;;;;;;;52.85;24.33;;;18.10;1.00;;;;;;5089631;28;20385;-59
2023/05/23 05:03:46;;;;;;;50.80;23.42;;;18.10;1.00;;;;;;5091037;28;20378;-64
2023/05/23 05:06:12;;;;;;;48.10;24.40;;;18.10;1.00;;;;;;5090741;28;20370;-64
2023/05/23 05:08:39;;;;;;;47.80;23.60;;;18.00;1.00;;;;;;5086991;28;20388;-63
2023/05/23 05:11:05;;;;;;;47.75;22.98;;;17.90;1.00;;;;;;5088105;28;20434;-63
2023/05/23 05:13:30;;;;;;;46.83;23.55;;;17.80;1.00;;;;;;5080563;28;20453;-63
2023/05/23 05:15:57;;;;;;;50.63;24.50;;;17.80;1.00;;;;;;5072800;28;20400;-64
2023/05/23 05:18:24;;;;;;;49.15;23.25;;;17.90;1.00;;;;;;5069527;28;20888;-63
2023/05/23 05:20:50;;;;;;;48.92;23.98;;;18.00;1.00;;;;;;5070098;28;20732;-64
2023/05/23 05:23:16;;;;;;;47.30;23.35;;;18.10;1.00;;;;;;5070306;28;20483;-59
2023/05/23 05:25:41;;;;;;;51.20;25.07;;;18.00;1.00;;;;;;5069699;28;20461;-64
2023/05/23 05:28:07;;;;;;;50.60;24.70;;;18.10;1.00;;;;;;5070204;28;20731;-63
2023/05/23 05:30:36;;;;;;;48.28;22.92;;;18.00;1.00;;;;;;5069998;28;20364;-63
2023/05/23 05:33:03;;;;;;;43.60;23.20;;;18.00;1.00;;;;;;5069652;28;20403;-64
2023/05/23 05:35:33;;;;;;;48.20;23.65;;;18.30;1.00;;;;;;5069401;28;20387;-64
2023/05/23 05:38:00;;;;;;;45.55;22.08;;;18.50;1.00;;;;;;5070285;28;20372;-64
2023/05/23 05:40:25;;;;;;;41.35;23.08;;;18.60;1.00;;;;;;5069666;28;20407;-64
2023/05/23 05:42:51;;;;;;;44.90;23.10;;;18.80;1.00;;;;;;5070121;28;20442;-64
2023/05/23 05:45:17;;;;;;;48.15;23.35;;;18.80;99.90;;;;;;5069429;28;20383;-63
2023/05/23 05:47:44;;;;;;;46.50;22.17;;;19.00;99.90;;;;;;5070166;28;20386;-63
2023/05/23 05:50:10;;;;;;;45.92;22.55;;;19.00;99.90;;;;;;5069758;28;20733;-63
2023/05/23 05:52:38;;;;;;;38.58;20.85;;;18.90;99.90;;;;;;5069404;28;20887;-63
2023/05/23 05:55:11;;;;;;;47.58;24.08;;;18.80;99.90;;;;;;5070116;28;20534;-63
2023/05/23 05:57:40;;;;;;;42.40;22.17;;;19.00;99.90;;;;;;5069495;28;20384;-63
2023/05/23 06:00:12;;;;;;;44.65;23.30;;;19.20;99.90;;;;;;5069785;28;20376;-63
2023/05/23 06:02:46;;;;;;;49.67;24.67;;;19.20;53.80;;;;;;5069603;28;20391;-63
2023/05/23 06:05:12;;;;;;;44.78;22.67;;;19.20;99.90;;;;;;5080210;28;20489;-63
2023/05/23 06:07:39;;;;;;;47.03;23.30;;;19.20;99.90;;;;;;5089635;28;20381;-63
2023/05/23 06:10:07;;;;;;;46.17;23.25;;;19.30;93.60;;;;;;5089142;28;20394;-63
2023/05/23 06:12:36;;;;;;;43.03;22.10;;;19.20;99.90;;;;;;5089433;28;20414;-63
2023/05/23 06:15:01;;;;;;;44.60;23.27;;;19.10;99.90;;;;;;5089951;28;20463;-63
2023/05/23 06:17:27;;;;;;;45.88;24.10;;;18.90;99.90;;;;;;5089127;28;21226;-63
2023/05/23 06:19:53;;;;;;;47.40;23.30;;;19.00;99.90;;;;;;5090214;28;20412;-62
2023/05/23 06:22:18;;;;;;;46.53;23.98;;;19.00;99.90;;;;;;5089337;28;20378;-59
2023/05/23 06:24:45;;;;;;;43.45;21.02;;;18.90;99.90;;;;;;5089673;28;20371;-63
2023/05/23 06:27:11;;;;;;;42.40;22.10;;;18.90;99.90;;;;;;5089685;28;20793;-63
2023/05/23 06:29:38;;;;;;;44.67;22.63;;;18.80;99.90;;;;;;5089572;28;20921;-63
2023/05/23 06:32:04;;;;;;;43.08;23.23;;;18.90;99.90;;;;;;5089424;28;20424;-63
2023/05/23 06:34:29;;;;;;;41.90;20.80;;;18.90;99.90;;;;;;5088992;28;20473;-63
2023/05/23 06:36:55;;;;;;;42.95;20.98;;;18.70;99.90;;;;;;5089502;28;20476;-63
2023/05/23 06:39:21;;;;;;;45.77;22.93;;;18.50;99.90;;;;;;5088767;28;20397;-59
2023/05/23 06:41:48;;;;;;;41.60;22.47;;;18.40;1.00;;;;;;5089615;28;20382;-63
2023/05/23 06:44:14;;;;;;;44.03;21.38;;;18.40;1.00;;;;;;5089744;28;20425;-63
2023/05/23 06:46:45;;;;;;;45.00;22.65;;;18.40;99.90;;;;;;5088964;28;20418;-63
2023/05/23 06:49:11;;;;;;;43.80;22.63;;;18.30;99.90;;;;;;5089623;28;20417;-63
2023/05/23 06:51:37;;;;;;;39.67;20.87;;;18.30;99.90;;;;;;5089184;28;20965;-63
2023/05/23 06:54:04;;;;;;;40.47;20.57;;;18.30;99.90;;;;;;5089363;28;20382;-64
2023/05/23 06:56:30;;;;;;;38.93;21.20;;;18.30;99.90;;;;;;5089204;28;20386;-63
2023/05/23 06:58:55;;;;;;;35.58;18.27;;;18.20;99.90;;;;;;5089501;28;20389;-64
2023/05/23 07:01:21;;;;;;;35.67;18.10;;;18.10;99.90;;;;;;5088899;28;20386;-63
2023/05/23 07:03:47;;;;;;;30.00;16.83;;;18.10;99.90;;;;;;5089292;28;20810;-62
2023/05/23 07:06:12;;;;;;;30.27;15.27;;;18.20;50.70;;;;;;5089292;28;20442;-64
2023/05/23 07:08:38;;;;;;;30.08;15.60;;;18.20;99.90;;;;;;5088724;28;20382;-64
2023/05/23 07:11:05;;;;;;;27.97;14.10;;;18.20;99.90;;;;;;5089629;28;20398;-65
2023/05/23 07:13:31;;;;;;;26.98;14.50;;;18.30;1.00;;;;;;5088430;28;20798;-64
2023/05/23 07:15:57;;;;;;;27.10;15.70;;;18.10;92.80;;;;;;5088923;28;20412;-63
2023/05/23 07:18:23;;;;;;;27.98;15.10;;;18.20;1.00;;;;;;5089159;28;20413;-63
2023/05/23 07:20:48;;;;;;;31.90;15.60;;;18.30;1.00;;;;;;5089718;28;20377;-64
2023/05/23 07:23:15;;;;;;;28.80;14.30;;;18.50;1.00;;;;;;5071197;28;20386;-65
2023/05/23 07:25:41;;;;;;;28.27;14.57;;;18.60;99.90;;;;;;5088483;28;20382;-64
2023/05/23 07:28:07;;;;;;;27.75;15.68;;;18.40;1.00;;;;;;5088889;28;20754;-64
2023/05/23 07:30:33;;;;;;;27.33;14.40;;;18.40;99.90;;;;;;5087902;28;20767;-64
2023/05/23 07:32:58;;;;;;;25.05;14.50;;;18.30;99.90;;;;;;5089523;28;20493;-64
2023/05/23 07:35:25;;;;;;;29.05;14.85;;;18.40;1.00;;;;;;5088258;28;20414;-64
2023/05/23 07:37:54;;;;;;;25.75;15.00;;;18.60;99.90;;;;;;5089013;28;20374;-64
2023/05/23 07:40:21;;;;;;;30.77;14.90;;;18.80;1.00;;;;;;5089104;28;20855;-58
2023/05/23 07:42:46;;;;;;;25.67;14.30;;;19.10;1.00;;;;;;5089302;28;20400;-64
2023/05/23 07:45:12;;;;;;;27.02;14.65;;;18.90;99.90;;;;;;5089423;28;20370;-63
2023/05/23 07:47:38;;;;;;;26.37;14.00;;;19.20;23.90;;;;;;5090012;28;20389;-63
2023/05/23 07:50:05;;;;;;;25.33;13.53;;;19.80;99.90;;;;;;5093027;28;20417;-64
2023/05/23 07:52:31;;;;;;;27.42;14.27;;;20.30;1.00;;;;;;5091603;28;20863;-63
2023/05/23 07:54:57;;;;;;;24.90;13.77;;;20.90;99.90;;;;;;5093103;28;20393;-63
2023/05/23 07:57:23;;;;;;;24.70;13.75;;;21.00;99.90;;;;;;5092081;28;20465;-63
2023/05/23 07:59:50;;;;;;;25.58;13.82;;;20.60;99.90;;;;;;5092490;28;20462;-63
2023/05/23 08:02:16;;;;;;;26.15;14.80;;;19.80;99.90;;;;;;5092452;28;20436;-63
2023/05/23 08:04:41;;;;;;;26.77;14.05;;;19.40;99.90;;;;;;5091516;28;20382;-64
2023/05/23 08:07:08;;;;;;;26.00;14.00;;;19.40;1.00;;;;;;5092433;28;20813;-63
2023/05/23 08:09:34;;;;;;;25.10;14.60;;;19.20;1.00;;;;;;5091409;28;20919;-64
2023/05/23 08:12:00;;;;;;;26.52;14.18;;;19.00;1.00;;;;;;5092160;28;20945;-63
2023/05/23 08:14:26;;;;;;;24.90;13.70;;;18.80;1.00;;;;;;5091278;28;20414;-63
2023/05/23 08:16:51;;;;;;;24.50;12.18;;;18.40;99.90;;;;;;5092260;28;20465;-64
2023/05/23 08:19:17;;;;;;;24.97;13.77;;;18.20;99.90;;;;;;5092159;28;20785;-64
2023/05/23 08:21:43;;;;;;;27.23;15.00;;;18.40;1.00;;;;;;5091603;28;20839;-63
2023/05/23 08:24:08;;;;;;;26.63;14.30;;;18.70;1.00;;;;;;5092380;28;20378;-63
2023/05/23 08:26:35;;;;;;;23.17;13.13;;;19.20;78.70;;;;;;5091325;28;20394;-63
2023/05/23 08:29:01;;;;;;;25.27;14.05;;;19.50;1.00;;;;;;5091910;28;20883;-62
2023/05/23 08:31:28;;;;;;;27.45;13.98;;;19.80;99.90;;;;;;5091103;28;20785;-64
2023/05/23 08:33:55;;;;;;;27.13;12.80;;;20.00;99.90;;;;;;5091849;28;20464;-64
2023/05/23 08:36:21;;;;;;;20.92;10.73;;;19.80;99.90;;;;;;5091241;28;20394;-59
2023/05/23 08:38:46;;;;;;;22.08;12.30;;;19.50;99.90;;;;;;5091355;28;20923;-63
2023/05/23 08:41:20;;;;;;;22.08;11.23;;;20.00;99.90;;;;;;5091924;28;20720;-63
2023/05/23 08:43:46;;;;;;;22.50;12.40;;;20.20;99.90;;;;;;5091224;28;20990;-63
2023/05/23 08:46:13;;;;;;;21.02;11.05;;;19.80;99.90;;;;;;5091890;28;20469;-61
2023/05/23 08:48:40;;;;;;;21.95;10.75;;;19.50;99.90;;;;;;5090567;28;20446;-63
2023/05/23 08:51:09;;;;;;;21.40;11.40;;;18.90;99.90;;;;;;5091483;28;20402;-63
2023/05/23 08:53:37;;;;;;;20.98;11.25;;;18.80;99.90;;;;;;5090861;28;20402;-63
2023/05/23 08:56:03;;;;;;;24.23;12.50;;;18.70;99.90;;;;;;5091854;28;20398;-63
2023/05/23 08:58:34;;;;;;;28.43;13.10;;;18.70;1.00;;;;;;5090376;28;20394;-63
2023/05/23 09:01:00;;;;;;;20.80;11.57;;;19.00;99.90;;;;;;5091647;28;20421;-63
2023/05/23 09:03:26;;;;;;;22.30;12.38;;;19.60;99.90;;;;;;5091132;28;20410;-63
2023/05/23 09:05:53;;;;;;;22.13;12.23;;;19.90;99.90;;;;;;5091526;28;20378;-64
2023/05/23 09:08:20;;;;;;;19.88;11.32;;;20.50;99.90;;;;;;5091398;28;20390;-65
2023/05/23 09:10:48;;;;;;;20.10;10.87;;;20.50;1.00;;;;;;5090892;28;20405;-63
2023/05/23 09:13:16;;;;;;;23.50;10.87;;;20.30;1.00;;;;;;5090774;28;20417;-63
2023/05/23 09:16:01;;;;;;;18.55;10.35;;;20.50;1.00;;;;;;5090411;28;20366;-63
2023/05/23 09:18:37;;;;;;;20.13;11.32;;;20.50;1.00;;;;;;5090226;28;20516;-63
2023/05/23 09:21:03;;;;;;;20.58;11.40;;;20.50;1.00;;;;;;5090765;28;20847;-63
2023/05/23 09:23:33;;;;;;;18.77;10.05;;;20.60;1.00;;;;;;5089899;28;20416;-63
2023/05/23 09:26:04;;;;;;;18.75;9.65;;;21.30;1.00;;;;;;5090996;28;20432;-63
2023/05/23 09:28:31;;;;;;;18.58;9.82;;;21.40;1.00;;;;;;5090417;28;20367;-64
2023/05/23 09:31:01;;;;;;;19.42;9.05;;;21.50;1.00;;;;;;5090741;28;20385;-65
2023/05/23 09:33:38;;;;;;;17.63;9.55;;;21.20;1.00;;;;;;5089999;28;20401;-63
2023/05/23 09:36:06;;;;;;;15.80;9.13;;;20.70;1.00;;;;;;5090654;28;20735;-63
2023/05/23 09:38:36;;;;;;;19.15;9.98;;;20.70;1.00;;;;;;5089864;28;20385;-64
2023/05/23 09:41:03;;;;;;;18.30;9.88;;;20.30;1.00;;;;;;5090525;28;20394;-63
2023/05/23 09:43:28;;;;;;;18.80;9.23;;;20.30;1.00;;;;;;5089640;28;20434;-64
2023/05/23 09:45:55;;;;;;;15.63;8.90;;;20.70;1.00;;;;;;5090484;28;20466;-63
2023/05/23 09:48:29;;;;;;;16.40;8.70;;;21.00;1.00;;;;;;5090528;28;20399;-59
2023/05/23 09:50:55;;;;;;;17.75;9.32;;;21.00;1.00;;;;;;5090370;28;20378;-62
2023/05/23 09:53:21;;;;;;;18.63;9.30;;;20.60;1.00;;;;;;5090502;28;20407;-59
2023/05/23 09:55:51;;;;;;;16.60;8.40;;;20.80;1.00;;;;;;5089902;28;20461;-63
2023/05/23 09:58:18;;;;;;;16.13;8.85;;;21.00;1.00;;;;;;5090111;28;20374;-63
2023/05/23 10:00:49;;;;;;;17.42;8.90;;;21.00;1.00;;;;;;5089432;28;20479;-64
2023/05/23 10:03:16;;;;;;;18.30;8.27;;;21.10;1.00;;;;;;5090201;28;20386;-64
2023/05/23 10:06:00;;;;;;;16.15;8.15;;;21.20;1.00;;;;;;5089233;28;20386;-63
2023/05/23 10:08:35;;;;;;;15.23;8.00;;;21.10;1.00;;;;;;5089141;28;20394;-63
2023/05/23 10:11:13;;;;;;;21.23;8.85;;;21.50;1.00;;;;;;5089575;28;20485;-63
2023/05/23 10:13:48;;;;;;;17.55;8.52;;;21.50;1.00;;;;;;5088941;28;20408;-64
2023/05/23 10:16:42;;;;;;;15.60;8.47;;;21.40;1.00;;;;;;5089855;28;20373;-62
2023/05/23 10:19:24;;;;;;;14.43;7.63;;;21.80;1.00;;;;;;5089942;28;20385;-64
2023/05/23 10:21:58;;;;;;;17.92;8.27;;;22.20;1.00;;;;;;5089545;28;20393;-63
2023/05/23 10:24:25;;;;;;;13.30;7.40;;;21.90;1.00;;;;;;5089266;28;20393;-63
2023/05/23 10:26:52;;;;;;;14.70;7.68;;;22.20;1.00;;;;;;5090130;28;20469;-63
2023/05/23 10:29:17;;;;;;;16.55;7.80;;;22.50;1.00;;;;;;5089743;28;20377;-63
2023/05/23 10:31:43;;;;;;;13.80;7.27;;;22.60;99.90;;;;;;5088895;28;20440;-63
2023/05/23 10:34:22;;;;;;;14.80;7.73;;;22.20;99.90;;;;;;5089770;28;20732;-63
2023/05/23 10:37:01;;;;;;;12.73;7.03;;;21.70;99.90;;;;;;5089856;28;20418;-63
2023/05/23 10:39:29;;;;;;;14.38;7.03;;;21.60;99.90;;;;;;5089084;28;20420;-63
2023/05/23 10:42:00;;;;;;;13.48;7.15;;;22.10;99.90;;;;;;5089592;28;20547;-63
2023/05/23 10:44:29;;;;;;;13.95;6.75;;;22.10;99.90;;;;;;5088972;28;20396;-63
2023/05/23 10:46:59;;;;;;;14.40;6.70;;;22.00;99.90;;;;;;5089560;28;20385;-63
2023/05/23 10:49:51;;;;;;;12.10;6.20;;;22.00;99.90;;;;;;5089234;28;20374;-63
2023/05/23 10:52:17;;;;;;;13.32;6.65;;;22.00;99.90;;;;;;5089753;28;20405;-64
2023/05/23 10:54:49;;;;;;;13.68;7.10;;;21.80;99.90;;;;;;5088743;28;20396;-63
2023/05/23 10:57:26;;;;;;;14.23;6.60;;;21.40;99.90;;;;;;5089776;28;20374;-63
2023/05/23 10:59:52;;;;;;;13.25;6.82;;;21.70;99.90;;;;;;5089604;28;20439;-63
2023/05/23 11:02:25;;;;;;;12.00;6.25;;;22.40;99.90;;;;;;5089724;28;20869;-63
2023/05/23 11:05:22;;;;;;;11.45;6.05;;;22.30;99.90;;;;;;5089224;28;20735;-63
2023/05/23 11:08:13;;;;;;;11.13;5.65;;;23.00;99.90;;;;;;5089088;28;20476;-63
2023/05/23 11:10:52;;;;;;;11.15;5.65;;;23.50;99.90;;;;;;5088534;28;20980;-63
2023/05/23 11:13:20;;;;;;;12.57;6.60;;;23.60;99.90;;;;;;5089498;28;20463;-63
2023/05/23 11:15:46;;;;;;;14.97;7.30;;;23.20;99.90;;;;;;5088736;28;20864;-63
2023/05/23 11:18:20;;;;;;;13.35;6.82;;;22.30;99.90;;;;;;5089330;28;20380;-63
2023/05/23 11:20:46;;;;;;;15.27;7.60;;;21.50;99.90;;;;;;5088988;28;20407;-63
2023/05/23 11:23:12;;;;;;;17.77;8.65;;;21.10;99.90;;;;;;5094141;28;20417;-63
2023/05/23 11:25:41;;;;;;;14.30;7.43;;;20.70;99.90;;;;;;5092259;28;20414;-64
2023/05/23 11:28:08;;;;;;;14.52;7.65;;;21.00;99.90;;;;;;5093317;28;20484;-63
2023/05/23 11:30:36;;;;;;;15.63;7.85;;;20.90;99.90;;;;;;5092386;28;20385;-63
2023/05/23 11:33:15;;;;;;;17.05;8.10;;;21.00;99.90;;;;;;5093007;28;20389;-63
2023/05/23 11:35:48;;;;;;;15.73;7.60;;;21.20;99.90;;;;;;5091984;28;20382;-63
2023/05/23 11:38:17;;;;;;;15.20;7.43;;;21.40;99.90;;;;;;5092672;28;20382;-63
2023/05/23 11:40:45;;;;;;;13.95;7.70;;;21.40;99.90;;;;;;5091811;28;20421;-63
2023/05/23 11:43:16;;;;;;;13.15;7.20;;;21.30;99.90;;;;;;5092830;28;20848;-63
2023/05/23 11:45:42;;;;;;;13.32;6.85;;;21.60;99.90;;;;;;5074020;28;20393;-63
2023/05/23 11:48:12;;;;;;;12.18;6.20;;;21.90;99.90;;;;;;5093223;28;20514;-63
2023/05/23 11:50:48;;;;;;;11.77;6.30;;;22.20;99.90;;;;;;5092633;28;20385;-63
2023/05/23 11:53:17;;;;;;;11.50;6.00;;;21.90;99.90;;;;;;5092771;28;20402;-63
2023/05/23 11:55:54;;;;;;;12.75;6.40;;;21.40;99.90;;;;;;5091854;28;20394;-63
2023/05/23 11:58:21;;;;;;;12.80;5.80;;;21.10;99.90;;;;;;5092428;28;20382;-63
2023/05/23 12:00:47;;;;;;;14.00;6.40;;;21.30;99.90;;;;;;5091718;28;20386;-63
2023/05/23 12:03:13;;;;;;;14.55;7.18;;;21.60;99.90;;;;;;5092690;28;20755;-63
2023/05/23 12:05:38;;;;;;;13.00;6.23;;;21.40;99.90;;;;;;5092440;28;20397;-63
2023/05/23 12:08:04;;;;;;;12.37;6.13;;;21.60;99.90;;;;;;5092445;28;20840;-63
2023/05/23 12:10:30;;;;;;;12.52;6.72;;;21.90;99.90;;;;;;5091389;28;20401;-63
2023/05/23 12:12:55;;;;;;;11.18;5.70;;;21.90;99.90;;;;;;5092409;28;20448;-63
2023/05/23 12:15:28;;;;;;;14.80;5.80;;;21.90;99.90;;;;;;5092658;28;20835;-63
2023/05/23 12:17:55;;;;;;;12.45;5.60;;;22.40;99.90;;;;;;5092228;28;20386;-63
2023/05/23 12:20:21;;;;;;;13.00;5.70;;;22.50;99.90;;;;;;5091727;28;20507;-63
2023/05/23 12:22:47;;;;;;;10.75;5.03;;;22.30;99.90;;;;;;5091386;28;20396;-63
2023/05/23 12:25:12;;;;;;;10.27;5.67;;;22.30;99.90;;;;;;5091251;28;20390;-63
2023/05/23 12:27:40;;;;;;;12.40;6.13;;;22.30;99.90;;;;;;5091456;28;20374;-63
2023/05/23 12:30:12;;;;;;;14.45;5.70;;;22.40;99.90;;;;;;5092169;28;20386;-63
2023/05/23 12:32:42;;;;;;;12.02;5.60;;;22.40;99.90;;;;;;5090542;28;20417;-63
2023/05/23 12:35:09;;;;;;;10.95;4.90;;;22.40;99.90;;;;;;5091636;28;20417;-63
2023/05/23 12:37:43;;;;;;;12.05;5.63;;;22.90;99.90;;;;;;5091271;28;20388;-62
2023/05/23 12:40:13;;;;;;;11.73;5.50;;;23.00;99.90;;;;;;5091724;28;20409;-62